sensor_id;sensor_type;location;lat;lon;timestamp;temperature;humidity
26408;DHT22;14583;43.604;1.364;2022-11-15T00:02:11;13.70;99.90
26408;DHT22;14583;43.604;1.364;2022-11-15T00:04:37;13.70;99.90
26408;DHT22;14583;43.604;1.364;2022-11-15T00:07:02;13.60;99.90
26408;DHT22;14583;43.604;1.364;2022-11-15T00:09:28;13.60;99.90
26408;DHT22;14583;43.604;1.364;2022-11-15T00:11:54;13.60;99.90
26408;DHT22;14583;43.604;1.364;2022-11-15T00:14:20;13.60;99.90
26408;DHT22;14583;43.604;1.364;2022-11-15T00:16:46;13.60;99.90
26408;DHT22;14583;43.604;1.364;2022-11-15T00:19:11;13.50;99.90
26408;DHT22;14583;43.604;1.364;2022-11-15T00:21:37;13.50;99.90
26408;DHT22;14583;43.604;1.364;2022-11-15T00:24:03;13.50;99.90
26408;DHT22;14583;43.604;1.364;2022-11-15T00:26:31;13.60;99.90
26408;DHT22;14583;43.604;1.364;2022-11-15T00:28:57;13.60;99.90
26408;DHT22;14583;43.604;1.364;2022-11-15T00:31:23;13.70;99.90
26408;DHT22;14583;43.604;1.364;2022-11-15T00:33:48;13.70;99.90
26408;DHT22;14583;43.604;1.364;2022-11-15T00:36:14;13.70;99.90
26408;DHT22;14583;43.604;1.364;2022-11-15T00:38:40;13.70;99.90
26408;DHT22;14583;43.604;1.364;2022-11-15T00:41:07;13.60;99.90
26408;DHT22;14583;43.604;1.364;2022-11-15T00:43:33;13.60;99.90
26408;DHT22;14583;43.604;1.364;2022-11-15T00:45:59;13.60;99.90
26408;DHT22;14583;43.604;1.364;2022-11-15T00:48:25;13.60;99.90
26408;DHT22;14583;43.604;1.364;2022-11-15T00:50:51;13.50;99.90
26408;DHT22;14583;43.604;1.364;2022-11-15T00:53:17;13.50;99.90
26408;DHT22;14583;43.604;1.364;2022-11-15T00:55:43;13.50;99.90
26408;DHT22;14583;43.604;1.364;2022-11-15T00:58:08;13.50;99.90
26408;DHT22;14583;43.604;1.364;2022-11-15T01:00:34;13.50;99.90
26408;DHT22;14583;43.604;1.364;2022-11-15T01:03:01;13.60;99.90
26408;DHT22;14583;43.604;1.364;2022-11-15T01:05:27;13.50;99.90
26408;DHT22;14583;43.604;1.364;2022-11-15T01:07:56;13.40;99.90
26408;DHT22;14583;43.604;1.364;2022-11-15T01:10:22;13.50;99.90
26408;DHT22;14583;43.604;1.364;2022-11-15T01:12:49;13.60;99.90
26408;DHT22;14583;43.604;1.364;2022-11-15T01:15:14;13.60;99.90
26408;DHT22;14583;43.604;1.364;2022-11-15T01:17:40;13.60;99.90
26408;DHT22;14583;43.604;1.364;2022-11-15T01:20:06;13.60;99.90
26408;DHT22;14583;43.604;1.364;2022-11-15T01:22:32;13.60;99.90
26408;DHT22;14583;43.604;1.364;2022-11-15T01:25:01;13.60;99.90
26408;DHT22;14583;43.604;1.364;2022-11-15T01:27:27;13.60;99.90
26408;DHT22;14583;43.604;1.364;2022-11-15T01:29:53;13.60;99.90
26408;DHT22;14583;43.604;1.364;2022-11-15T01:32:21;13.60;99.90
26408;DHT22;14583;43.604;1.364;2022-11-15T01:34:47;13.50;99.90
26408;DHT22;14583;43.604;1.364;2022-11-15T01:37:15;13.60;99.90
26408;DHT22;14583;43.604;1.364;2022-11-15T01:39:41;13.60;99.90
26408;DHT22;14583;43.604;1.364;2022-11-15T01:42:12;13.60;99.90
26408;DHT22;14583;43.604;1.364;2022-11-15T01:44:42;13.60;99.90
26408;DHT22;14583;43.604;1.364;2022-11-15T01:47:29;13.60;99.90
26408;DHT22;14583;43.604;1.364;2022-11-15T01:50:06;13.50;99.90
26408;DHT22;14583;43.604;1.364;2022-11-15T01:52:34;13.60;99.90
26408;DHT22;14583;43.604;1.364;2022-11-15T01:55:11;13.60;99.90
26408;DHT22;14583;43.604;1.364;2022-11-15T01:57:41;13.60;99.90
26408;DHT22;14583;43.604;1.364;2022-11-15T02:00:08;13.70;99.90
26408;DHT22;14583;43.604;1.364;2022-11-15T02:02:36;13.70;99.90
26408;DHT22;14583;43.604;1.364;2022-11-15T02:05:03;13.70;99.90
26408;DHT22;14583;43.604;1.364;2022-11-15T02:07:30;13.70;99.90
26408;DHT22;14583;43.604;1.364;2022-11-15T02:09:59;13.70;99.90
26408;DHT22;14583;43.604;1.364;2022-11-15T02:12:27;13.80;99.90
26408;DHT22;14583;43.604;1.364;2022-11-15T02:14:53;13.80;99.90
26408;DHT22;14583;43.604;1.364;2022-11-15T02:20:24;13.90;99.90
26408;DHT22;14583;43.604;1.364;2022-11-15T02:28:53;13.90;99.90
26408;DHT22;14583;43.604;1.364;2022-11-15T02:31:40;13.90;99.90
26408;DHT22;14583;43.604;1.364;2022-11-15T02:34:28;13.80;99.90
26408;DHT22;14583;43.604;1.364;2022-11-15T02:42:42;13.90;99.90
26408;DHT22;14583;43.604;1.364;2022-11-15T02:45:29;13.90;99.90
26408;DHT22;14583;43.604;1.364;2022-11-15T02:47:59;13.90;99.90
26408;DHT22;14583;43.604;1.364;2022-11-15T02:50:29;13.80;99.90
26408;DHT22;14583;43.604;1.364;2022-11-15T02:52:55;13.90;99.90
26408;DHT22;14583;43.604;1.364;2022-11-15T02:58:32;13.90;99.90
26408;DHT22;14583;43.604;1.364;2022-11-15T03:09:12;13.80;99.90
26408;DHT22;14583;43.604;1.364;2022-11-15T03:11:45;13.90;99.90
26408;DHT22;14583;43.604;1.364;2022-11-15T03:14:22;13.80;99.90
26408;DHT22;14583;43.604;1.364;2022-11-15T03:17:42;13.80;99.90
26408;DHT22;14583;43.604;1.364;2022-11-15T03:20:03;13.80;99.90
26408;DHT22;14583;43.604;1.364;2022-11-15T03:22:34;13.90;99.90
26408;DHT22;14583;43.604;1.364;2022-11-15T03:25:05;13.80;99.90
26408;DHT22;14583;43.604;1.364;2022-11-15T03:27:36;13.80;99.90
26408;DHT22;14583;43.604;1.364;2022-11-15T03:30:06;13.80;99.90
26408;DHT22;14583;43.604;1.364;2022-11-15T03:32:54;13.70;99.90
26408;DHT22;14583;43.604;1.364;2022-11-15T03:35:23;13.70;99.90
26408;DHT22;14583;43.604;1.364;2022-11-15T03:37:57;13.70;99.90
26408;DHT22;14583;43.604;1.364;2022-11-15T03:40:41;13.80;99.90
26408;DHT22;14583;43.604;1.364;2022-11-15T03:45:48;13.80;99.90
26408;DHT22;14583;43.604;1.364;2022-11-15T03:48:24;13.80;99.90
26408;DHT22;14583;43.604;1.364;2022-11-15T03:50:51;13.80;99.90
26408;DHT22;14583;43.604;1.364;2022-11-15T03:53:17;13.90;99.90
26408;DHT22;14583;43.604;1.364;2022-11-15T03:55:43;13.90;99.90
26408;DHT22;14583;43.604;1.364;2022-11-15T03:58:09;14.00;99.90
26408;DHT22;14583;43.604;1.364;2022-11-15T04:00:34;14.10;99.90
26408;DHT22;14583;43.604;1.364;2022-11-15T04:03:00;14.10;99.90
26408;DHT22;14583;43.604;1.364;2022-11-15T04:05:26;14.10;99.90
26408;DHT22;14583;43.604;1.364;2022-11-15T04:07:51;14.10;99.90
26408;DHT22;14583;43.604;1.364;2022-11-15T04:10:17;14.10;99.90
26408;DHT22;14583;43.604;1.364;2022-11-15T04:12:44;14.10;99.90
26408;DHT22;14583;43.604;1.364;2022-11-15T04:15:18;14.20;99.90
26408;DHT22;14583;43.604;1.364;2022-11-15T04:17:55;14.20;99.90
26408;DHT22;14583;43.604;1.364;2022-11-15T04:20:29;14.20;99.90
26408;DHT22;14583;43.604;1.364;2022-11-15T04:23:21;14.30;99.90
26408;DHT22;14583;43.604;1.364;2022-11-15T04:26:08;14.30;99.90
26408;DHT22;14583;43.604;1.364;2022-11-15T04:28:35;14.30;99.90
26408;DHT22;14583;43.604;1.364;2022-11-15T04:31:21;14.30;99.90
26408;DHT22;14583;43.604;1.364;2022-11-15T04:33:47;14.30;99.90
26408;DHT22;14583;43.604;1.364;2022-11-15T04:36:13;14.30;99.90
26408;DHT22;14583;43.604;1.364;2022-11-15T04:38:57;14.30;99.90
26408;DHT22;14583;43.604;1.364;2022-11-15T04:41:23;14.30;99.90
26408;DHT22;14583;43.604;1.364;2022-11-15T04:43:48;14.30;99.90
26408;DHT22;14583;43.604;1.364;2022-11-15T04:46:14;14.30;99.90
26408;DHT22;14583;43.604;1.364;2022-11-15T04:48:39;14.30;99.90
26408;DHT22;14583;43.604;1.364;2022-11-15T04:51:05;14.30;99.90
26408;DHT22;14583;43.604;1.364;2022-11-15T04:53:31;14.30;99.90
26408;DHT22;14583;43.604;1.364;2022-11-15T04:55:56;14.30;99.90
26408;DHT22;14583;43.604;1.364;2022-11-15T04:58:22;14.30;99.90
26408;DHT22;14583;43.604;1.364;2022-11-15T05:00:48;14.30;99.90
26408;DHT22;14583;43.604;1.364;2022-11-15T05:03:13;14.40;99.90
26408;DHT22;14583;43.604;1.364;2022-11-15T05:05:58;14.40;99.90
26408;DHT22;14583;43.604;1.364;2022-11-15T05:08:24;14.40;99.90
26408;DHT22;14583;43.604;1.364;2022-11-15T05:10:50;14.40;99.90
26408;DHT22;14583;43.604;1.364;2022-11-15T05:13:16;14.50;99.90
26408;DHT22;14583;43.604;1.364;2022-11-15T05:15:42;14.50;99.90
26408;DHT22;14583;43.604;1.364;2022-11-15T05:18:07;14.40;99.90
26408;DHT22;14583;43.604;1.364;2022-11-15T05:20:33;14.40;99.90
26408;DHT22;14583;43.604;1.364;2022-11-15T05:22:59;14.40;99.90
26408;DHT22;14583;43.604;1.364;2022-11-15T05:25:25;14.40;99.90
26408;DHT22;14583;43.604;1.364;2022-11-15T05:27:50;14.40;99.90
26408;DHT22;14583;43.604;1.364;2022-11-15T05:30:16;14.40;99.90
26408;DHT22;14583;43.604;1.364;2022-11-15T05:32:43;14.40;99.90
26408;DHT22;14583;43.604;1.364;2022-11-15T05:35:13;14.40;99.90
26408;DHT22;14583;43.604;1.364;2022-11-15T05:37:42;14.40;99.90
26408;DHT22;14583;43.604;1.364;2022-11-15T05:40:08;14.40;99.90
26408;DHT22;14583;43.604;1.364;2022-11-15T05:42:34;14.40;99.90
26408;DHT22;14583;43.604;1.364;2022-11-15T05:45:02;14.50;99.90
26408;DHT22;14583;43.604;1.364;2022-11-15T05:47:29;14.50;99.90
26408;DHT22;14583;43.604;1.364;2022-11-15T05:49:56;14.40;99.90
26408;DHT22;14583;43.604;1.364;2022-11-15T05:52:27;14.40;99.90
26408;DHT22;14583;43.604;1.364;2022-11-15T05:54:53;14.50;99.90
26408;DHT22;14583;43.604;1.364;2022-11-15T05:57:20;14.60;99.90
26408;DHT22;14583;43.604;1.364;2022-11-15T05:59:46;14.60;99.90
26408;DHT22;14583;43.604;1.364;2022-11-15T06:02:12;14.60;99.90
26408;DHT22;14583;43.604;1.364;2022-11-15T06:04:38;14.50;99.90
26408;DHT22;14583;43.604;1.364;2022-11-15T06:07:03;14.50;99.90
26408;DHT22;14583;43.604;1.364;2022-11-15T06:09:29;14.50;99.90
26408;DHT22;14583;43.604;1.364;2022-11-15T06:11:55;14.50;99.90
26408;DHT22;14583;43.604;1.364;2022-11-15T06:14:21;14.50;99.90
26408;DHT22;14583;43.604;1.364;2022-11-15T06:16:46;14.50;99.90
26408;DHT22;14583;43.604;1.364;2022-11-15T06:19:12;14.50;99.90
26408;DHT22;14583;43.604;1.364;2022-11-15T06:21:37;14.50;99.90
26408;DHT22;14583;43.604;1.364;2022-11-15T06:24:04;14.50;99.90
26408;DHT22;14583;43.604;1.364;2022-11-15T06:26:30;14.50;99.90
26408;DHT22;14583;43.604;1.364;2022-11-15T06:28:55;14.50;99.90
26408;DHT22;14583;43.604;1.364;2022-11-15T06:31:21;14.50;99.90
26408;DHT22;14583;43.604;1.364;2022-11-15T06:33:47;14.60;99.90
26408;DHT22;14583;43.604;1.364;2022-11-15T06:36:14;14.50;99.90
26408;DHT22;14583;43.604;1.364;2022-11-15T06:38:42;14.50;99.90
26408;DHT22;14583;43.604;1.364;2022-11-15T06:41:09;14.50;99.90
26408;DHT22;14583;43.604;1.364;2022-11-15T06:43:36;14.60;99.90
26408;DHT22;14583;43.604;1.364;2022-11-15T06:46:03;14.50;99.90
26408;DHT22;14583;43.604;1.364;2022-11-15T06:48:30;14.50;99.90
26408;DHT22;14583;43.604;1.364;2022-11-15T06:51:00;14.50;99.90
26408;DHT22;14583;43.604;1.364;2022-11-15T06:53:26;14.50;99.90
26408;DHT22;14583;43.604;1.364;2022-11-15T06:55:52;14.50;99.90
26408;DHT22;14583;43.604;1.364;2022-11-15T06:58:20;14.60;99.90
26408;DHT22;14583;43.604;1.364;2022-11-15T07:00:46;14.70;99.90
26408;DHT22;14583;43.604;1.364;2022-11-15T07:03:12;14.80;99.90
26408;DHT22;14583;43.604;1.364;2022-11-15T07:05:37;14.80;99.90
26408;DHT22;14583;43.604;1.364;2022-11-15T07:08:03;14.80;99.90
26408;DHT22;14583;43.604;1.364;2022-11-15T07:10:29;14.80;99.90
26408;DHT22;14583;43.604;1.364;2022-11-15T07:12:55;14.80;99.90
26408;DHT22;14583;43.604;1.364;2022-11-15T07:15:25;14.70;99.90
26408;DHT22;14583;43.604;1.364;2022-11-15T07:17:51;14.60;99.90
26408;DHT22;14583;43.604;1.364;2022-11-15T07:20:17;14.60;99.90
26408;DHT22;14583;43.604;1.364;2022-11-15T07:22:44;14.60;99.90
26408;DHT22;14583;43.604;1.364;2022-11-15T07:25:12;14.60;99.90
26408;DHT22;14583;43.604;1.364;2022-11-15T07:27:38;14.60;99.90
26408;DHT22;14583;43.604;1.364;2022-11-15T07:30:04;14.60;99.90
26408;DHT22;14583;43.604;1.364;2022-11-15T07:32:30;14.60;99.90
26408;DHT22;14583;43.604;1.364;2022-11-15T07:34:56;14.60;99.90
26408;DHT22;14583;43.604;1.364;2022-11-15T07:37:22;14.60;99.90
26408;DHT22;14583;43.604;1.364;2022-11-15T07:39:47;14.60;99.90
26408;DHT22;14583;43.604;1.364;2022-11-15T07:42:13;14.60;99.90
26408;DHT22;14583;43.604;1.364;2022-11-15T07:44:58;14.60;99.90
26408;DHT22;14583;43.604;1.364;2022-11-15T07:47:23;14.70;99.90
26408;DHT22;14583;43.604;1.364;2022-11-15T07:49:49;14.60;99.90
26408;DHT22;14583;43.604;1.364;2022-11-15T07:52:15;14.70;99.90
26408;DHT22;14583;43.604;1.364;2022-11-15T07:54:40;14.70;99.90
26408;DHT22;14583;43.604;1.364;2022-11-15T07:57:06;14.80;99.90
26408;DHT22;14583;43.604;1.364;2022-11-15T07:59:34;14.80;99.90
26408;DHT22;14583;43.604;1.364;2022-11-15T08:02:00;14.80;99.90
26408;DHT22;14583;43.604;1.364;2022-11-15T08:04:26;14.80;99.90
26408;DHT22;14583;43.604;1.364;2022-11-15T08:06:51;14.80;99.90
26408;DHT22;14583;43.604;1.364;2022-11-15T08:09:17;14.80;99.90
26408;DHT22;14583;43.604;1.364;2022-11-15T08:11:43;14.90;99.90
26408;DHT22;14583;43.604;1.364;2022-11-15T08:14:09;14.90;99.90
26408;DHT22;14583;43.604;1.364;2022-11-15T08:16:34;14.90;99.90
26408;DHT22;14583;43.604;1.364;2022-11-15T08:19:00;15.00;99.90
26408;DHT22;14583;43.604;1.364;2022-11-15T08:21:25;15.00;99.90
26408;DHT22;14583;43.604;1.364;2022-11-15T08:23:51;15.00;99.90
26408;DHT22;14583;43.604;1.364;2022-11-15T08:26:17;15.00;99.90
26408;DHT22;14583;43.604;1.364;2022-11-15T08:28:43;15.00;99.90
26408;DHT22;14583;43.604;1.364;2022-11-15T08:31:16;15.10;99.90
26408;DHT22;14583;43.604;1.364;2022-11-15T08:33:43;15.10;99.90
26408;DHT22;14583;43.604;1.364;2022-11-15T08:36:13;15.20;99.90
26408;DHT22;14583;43.604;1.364;2022-11-15T08:38:39;15.20;99.90
26408;DHT22;14583;43.604;1.364;2022-11-15T08:41:05;15.20;99.90
26408;DHT22;14583;43.604;1.364;2022-11-15T08:43:32;15.30;99.90
26408;DHT22;14583;43.604;1.364;2022-11-15T08:45:58;15.30;99.90
26408;DHT22;14583;43.604;1.364;2022-11-15T08:48:24;15.40;99.90
26408;DHT22;14583;43.604;1.364;2022-11-15T08:50:54;15.40;99.90
26408;DHT22;14583;43.604;1.364;2022-11-15T08:53:20;15.50;99.90
26408;DHT22;14583;43.604;1.364;2022-11-15T08:55:45;15.50;99.90
26408;DHT22;14583;43.604;1.364;2022-11-15T08:58:11;15.50;99.90
26408;DHT22;14583;43.604;1.364;2022-11-15T09:00:37;15.50;99.90
26408;DHT22;14583;43.604;1.364;2022-11-15T09:03:06;15.50;99.90
26408;DHT22;14583;43.604;1.364;2022-11-15T09:05:32;15.60;99.90
26408;DHT22;14583;43.604;1.364;2022-11-15T09:07:57;15.60;99.90
26408;DHT22;14583;43.604;1.364;2022-11-15T09:10:23;15.60;99.90
26408;DHT22;14583;43.604;1.364;2022-11-15T09:12:50;15.50;99.90
26408;DHT22;14583;43.604;1.364;2022-11-15T09:15:16;15.50;99.90
26408;DHT22;14583;43.604;1.364;2022-11-15T09:17:42;15.60;99.90
26408;DHT22;14583;43.604;1.364;2022-11-15T09:20:08;15.70;99.90
26408;DHT22;14583;43.604;1.364;2022-11-15T09:22:34;15.70;99.90
26408;DHT22;14583;43.604;1.364;2022-11-15T09:24:59;15.80;99.90
26408;DHT22;14583;43.604;1.364;2022-11-15T09:27:31;15.80;99.90
26408;DHT22;14583;43.604;1.364;2022-11-15T09:29:57;15.80;99.90
26408;DHT22;14583;43.604;1.364;2022-11-15T09:32:23;15.90;99.90
26408;DHT22;14583;43.604;1.364;2022-11-15T09:34:49;16.00;99.90
26408;DHT22;14583;43.604;1.364;2022-11-15T09:37:16;16.10;99.90
26408;DHT22;14583;43.604;1.364;2022-11-15T09:39:41;16.20;99.90
26408;DHT22;14583;43.604;1.364;2022-11-15T09:50:12;16.10;99.90
26408;DHT22;14583;43.604;1.364;2022-11-15T09:52:41;16.10;99.90
26408;DHT22;14583;43.604;1.364;2022-11-15T09:55:10;16.20;99.90
26408;DHT22;14583;43.604;1.364;2022-11-15T09:57:47;16.20;99.90
26408;DHT22;14583;43.604;1.364;2022-11-15T10:00:22;16.20;99.90
26408;DHT22;14583;43.604;1.364;2022-11-15T10:03:10;16.30;99.90
26408;DHT22;14583;43.604;1.364;2022-11-15T10:06:03;16.30;99.90
26408;DHT22;14583;43.604;1.364;2022-11-15T10:08:50;16.40;99.90
26408;DHT22;14583;43.604;1.364;2022-11-15T10:11:31;16.50;99.90
26408;DHT22;14583;43.604;1.364;2022-11-15T10:14:00;16.60;99.90
26408;DHT22;14583;43.604;1.364;2022-11-15T10:17:05;16.60;99.90
26408;DHT22;14583;43.604;1.364;2022-11-15T10:27:45;17.20;99.90
26408;DHT22;14583;43.604;1.364;2022-11-15T10:30:15;17.20;99.90
26408;DHT22;14583;43.604;1.364;2022-11-15T10:32:43;17.40;99.90
26408;DHT22;14583;43.604;1.364;2022-11-15T10:35:25;17.50;99.90
26408;DHT22;14583;43.604;1.364;2022-11-15T10:37:51;17.50;99.90
26408;DHT22;14583;43.604;1.364;2022-11-15T10:40:22;17.50;99.90
26408;DHT22;14583;43.604;1.364;2022-11-15T10:42:49;17.50;99.90
26408;DHT22;14583;43.604;1.364;2022-11-15T10:45:31;17.40;99.90
26408;DHT22;14583;43.604;1.364;2022-11-15T10:48:26;17.40;99.90
26408;DHT22;14583;43.604;1.364;2022-11-15T10:50:53;17.40;99.90
26408;DHT22;14583;43.604;1.364;2022-11-15T10:53:27;17.40;99.90
26408;DHT22;14583;43.604;1.364;2022-11-15T10:55:56;17.30;99.90
26408;DHT22;14583;43.604;1.364;2022-11-15T11:03:38;17.20;99.90
26408;DHT22;14583;43.604;1.364;2022-11-15T11:06:15;17.30;99.90
26408;DHT22;14583;43.604;1.364;2022-11-15T11:08:55;17.30;99.90
26408;DHT22;14583;43.604;1.364;2022-11-15T11:11:21;17.30;99.90
26408;DHT22;14583;43.604;1.364;2022-11-15T11:13:47;17.30;99.90
26408;DHT22;14583;43.604;1.364;2022-11-15T11:18:51;17.40;99.90
26408;DHT22;14583;43.604;1.364;2022-11-15T11:21:44;17.40;99.90
26408;DHT22;14583;43.604;1.364;2022-11-15T11:30:03;17.60;99.90
26408;DHT22;14583;43.604;1.364;2022-11-15T11:37:54;18.00;99.90
26408;DHT22;14583;43.604;1.364;2022-11-15T11:40:35;18.00;99.90
26408;DHT22;14583;43.604;1.364;2022-11-15T11:46:02;17.90;99.90
26408;DHT22;14583;43.604;1.364;2022-11-15T11:48:45;17.90;99.90
26408;DHT22;14583;43.604;1.364;2022-11-15T11:51:17;17.90;99.90
26408;DHT22;14583;43.604;1.364;2022-11-15T11:56:53;17.90;99.90
26408;DHT22;14583;43.604;1.364;2022-11-15T11:59:42;18.00;99.90
26408;DHT22;14583;43.604;1.364;2022-11-15T12:02:37;18.00;99.90
26408;DHT22;14583;43.604;1.364;2022-11-15T12:07:46;18.10;99.90
26408;DHT22;14583;43.604;1.364;2022-11-15T12:12:58;18.40;99.90
26408;DHT22;14583;43.604;1.364;2022-11-15T12:16:32;18.40;99.90
26408;DHT22;14583;43.604;1.364;2022-11-15T12:18:28;18.40;99.90
26408;DHT22;14583;43.604;1.364;2022-11-15T12:21:17;18.50;99.90
26408;DHT22;14583;43.604;1.364;2022-11-15T12:23:52;18.50;99.90
26408;DHT22;14583;43.604;1.364;2022-11-15T12:26:23;18.40;99.90
26408;DHT22;14583;43.604;1.364;2022-11-15T12:28:57;18.30;99.90
26408;DHT22;14583;43.604;1.364;2022-11-15T12:31:45;18.20;99.90
26408;DHT22;14583;43.604;1.364;2022-11-15T12:36:49;18.20;99.90
26408;DHT22;14583;43.604;1.364;2022-11-15T12:39:16;18.20;99.90
26408;DHT22;14583;43.604;1.364;2022-11-15T12:59:52;17.80;99.90
26408;DHT22;14583;43.604;1.364;2022-11-15T13:04:48;17.80;99.90
26408;DHT22;14583;43.604;1.364;2022-11-15T13:07:56;17.90;99.90
26408;DHT22;14583;43.604;1.364;2022-11-15T13:10:31;17.80;99.90
26408;DHT22;14583;43.604;1.364;2022-11-15T13:13:10;17.90;99.90
26408;DHT22;14583;43.604;1.364;2022-11-15T13:15:56;17.90;99.90
26408;DHT22;14583;43.604;1.364;2022-11-15T13:20:52;18.00;99.90
26408;DHT22;14583;43.604;1.364;2022-11-15T13:23:18;18.00;99.90
26408;DHT22;14583;43.604;1.364;2022-11-15T13:26:12;18.00;99.90
26408;DHT22;14583;43.604;1.364;2022-11-15T13:28:45;18.00;99.90
26408;DHT22;14583;43.604;1.364;2022-11-15T13:33:52;18.10;99.90
26408;DHT22;14583;43.604;1.364;2022-11-15T13:36:27;18.00;99.90
26408;DHT22;14583;43.604;1.364;2022-11-15T13:38:56;17.90;99.90
26408;DHT22;14583;43.604;1.364;2022-11-15T13:44:21;17.80;99.90
26408;DHT22;14583;43.604;1.364;2022-11-15T13:46:47;17.80;99.90
26408;DHT22;14583;43.604;1.364;2022-11-15T13:49:12;17.80;99.90
26408;DHT22;14583;43.604;1.364;2022-11-15T13:51:48;17.70;99.90
26408;DHT22;14583;43.604;1.364;2022-11-15T13:54:19;17.70;99.90
26408;DHT22;14583;43.604;1.364;2022-11-15T13:56:55;17.60;99.90
26408;DHT22;14583;43.604;1.364;2022-11-15T13:59:46;17.60;99.90
26408;DHT22;14583;43.604;1.364;2022-11-15T14:02:21;17.60;99.90
26408;DHT22;14583;43.604;1.364;2022-11-15T14:07:20;17.50;99.90
26408;DHT22;14583;43.604;1.364;2022-11-15T14:09:46;17.50;99.90
26408;DHT22;14583;43.604;1.364;2022-11-15T14:12:33;17.50;99.90
26408;DHT22;14583;43.604;1.364;2022-11-15T14:17:44;17.50;99.90
26408;DHT22;14583;43.604;1.364;2022-11-15T14:20:40;17.60;99.90
26408;DHT22;14583;43.604;1.364;2022-11-15T14:23:19;17.60;99.90
26408;DHT22;14583;43.604;1.364;2022-11-15T14:25:57;17.60;99.90
26408;DHT22;14583;43.604;1.364;2022-11-15T14:30:50;17.50;99.90
26408;DHT22;14583;43.604;1.364;2022-11-15T14:33:32;17.50;99.90
26408;DHT22;14583;43.604;1.364;2022-11-15T14:38:36;17.40;99.90
26408;DHT22;14583;43.604;1.364;2022-11-15T14:41:02;17.40;99.90
26408;DHT22;14583;43.604;1.364;2022-11-15T14:43:28;17.30;99.90
26408;DHT22;14583;43.604;1.364;2022-11-15T14:45:53;17.40;99.90
26408;DHT22;14583;43.604;1.364;2022-11-15T14:48:19;17.30;99.90
26408;DHT22;14583;43.604;1.364;2022-11-15T14:50:45;17.30;99.90
26408;DHT22;14583;43.604;1.364;2022-11-15T14:53:12;17.20;99.90
26408;DHT22;14583;43.604;1.364;2022-11-15T14:55:39;17.20;99.90
26408;DHT22;14583;43.604;1.364;2022-11-15T14:58:07;17.20;99.90
26408;DHT22;14583;43.604;1.364;2022-11-15T15:00:39;17.20;99.90
26408;DHT22;14583;43.604;1.364;2022-11-15T15:03:05;17.20;99.90
26408;DHT22;14583;43.604;1.364;2022-11-15T15:05:37;17.20;99.90
26408;DHT22;14583;43.604;1.364;2022-11-15T15:08:03;17.20;99.90
26408;DHT22;14583;43.604;1.364;2022-11-15T15:10:41;17.10;99.90
26408;DHT22;14583;43.604;1.364;2022-11-15T15:13:16;17.10;99.90
26408;DHT22;14583;43.604;1.364;2022-11-15T15:15:42;17.10;99.90
26408;DHT22;14583;43.604;1.364;2022-11-15T15:18:08;17.10;99.90
26408;DHT22;14583;43.604;1.364;2022-11-15T15:20:41;17.10;99.90
26408;DHT22;14583;43.604;1.364;2022-11-15T15:23:15;17.20;99.90
26408;DHT22;14583;43.604;1.364;2022-11-15T15:25:42;17.20;99.90
26408;DHT22;14583;43.604;1.364;2022-11-15T15:28:09;17.10;99.90
26408;DHT22;14583;43.604;1.364;2022-11-15T15:30:34;17.10;99.90
26408;DHT22;14583;43.604;1.364;2022-11-15T15:33:00;17.10;99.90
26408;DHT22;14583;43.604;1.364;2022-11-15T15:35:29;17.10;99.90
26408;DHT22;14583;43.604;1.364;2022-11-15T15:37:56;17.10;99.90
26408;DHT22;14583;43.604;1.364;2022-11-15T15:40:23;17.10;99.90
26408;DHT22;14583;43.604;1.364;2022-11-15T15:42:49;17.10;99.90
26408;DHT22;14583;43.604;1.364;2022-11-15T15:45:16;17.10;99.90
26408;DHT22;14583;43.604;1.364;2022-11-15T15:47:43;17.10;99.90
26408;DHT22;14583;43.604;1.364;2022-11-15T15:52:51;17.10;99.90
26408;DHT22;14583;43.604;1.364;2022-11-15T15:55:17;17.00;99.90
26408;DHT22;14583;43.604;1.364;2022-11-15T15:57:43;17.00;99.90
26408;DHT22;14583;43.604;1.364;2022-11-15T16:00:09;17.00;99.90
26408;DHT22;14583;43.604;1.364;2022-11-15T16:02:36;17.00;99.90
26408;DHT22;14583;43.604;1.364;2022-11-15T16:05:02;16.90;99.90
26408;DHT22;14583;43.604;1.364;2022-11-15T16:07:27;17.00;99.90
26408;DHT22;14583;43.604;1.364;2022-11-15T16:09:54;16.90;99.90
26408;DHT22;14583;43.604;1.364;2022-11-15T16:12:34;16.90;99.90
26408;DHT22;14583;43.604;1.364;2022-11-15T16:15:00;16.90;99.90
26408;DHT22;14583;43.604;1.364;2022-11-15T16:17:31;16.80;99.90
26408;DHT22;14583;43.604;1.364;2022-11-15T16:19:57;16.80;99.90
26408;DHT22;14583;43.604;1.364;2022-11-15T16:22:23;16.80;99.90
26408;DHT22;14583;43.604;1.364;2022-11-15T16:24:49;16.70;99.90
26408;DHT22;14583;43.604;1.364;2022-11-15T16:27:17;16.70;99.90
26408;DHT22;14583;43.604;1.364;2022-11-15T16:29:43;16.70;99.90
26408;DHT22;14583;43.604;1.364;2022-11-15T16:32:10;16.60;99.90
26408;DHT22;14583;43.604;1.364;2022-11-15T16:34:36;16.60;99.90
26408;DHT22;14583;43.604;1.364;2022-11-15T16:37:02;16.60;99.90
26408;DHT22;14583;43.604;1.364;2022-11-15T16:39:28;16.50;99.90
26408;DHT22;14583;43.604;1.364;2022-11-15T16:41:56;16.50;99.90
26408;DHT22;14583;43.604;1.364;2022-11-15T16:44:22;16.50;99.90
26408;DHT22;14583;43.604;1.364;2022-11-15T16:46:49;16.50;99.90
26408;DHT22;14583;43.604;1.364;2022-11-15T16:49:17;16.50;99.90
26408;DHT22;14583;43.604;1.364;2022-11-15T16:51:45;16.50;99.90
26408;DHT22;14583;43.604;1.364;2022-11-15T16:54:11;16.50;99.90
26408;DHT22;14583;43.604;1.364;2022-11-15T16:56:37;16.50;99.90
26408;DHT22;14583;43.604;1.364;2022-11-15T16:59:03;16.40;99.90
26408;DHT22;14583;43.604;1.364;2022-11-15T17:01:36;16.40;99.90
26408;DHT22;14583;43.604;1.364;2022-11-15T17:04:11;16.40;99.90
26408;DHT22;14583;43.604;1.364;2022-11-15T17:06:38;16.40;99.90
26408;DHT22;14583;43.604;1.364;2022-11-15T17:09:06;16.40;99.90
26408;DHT22;14583;43.604;1.364;2022-11-15T17:11:32;16.40;99.90
26408;DHT22;14583;43.604;1.364;2022-11-15T17:13:58;16.40;99.90
26408;DHT22;14583;43.604;1.364;2022-11-15T17:16:24;16.40;99.90
26408;DHT22;14583;43.604;1.364;2022-11-15T17:18:51;16.40;99.90
26408;DHT22;14583;43.604;1.364;2022-11-15T17:21:19;16.30;99.90
26408;DHT22;14583;43.604;1.364;2022-11-15T17:23:45;16.30;99.90
26408;DHT22;14583;43.604;1.364;2022-11-15T17:26:12;16.30;99.90
26408;DHT22;14583;43.604;1.364;2022-11-15T17:28:39;16.30;99.90
26408;DHT22;14583;43.604;1.364;2022-11-15T17:31:09;16.20;99.90
26408;DHT22;14583;43.604;1.364;2022-11-15T17:33:37;16.20;99.90
26408;DHT22;14583;43.604;1.364;2022-11-15T17:36:05;16.20;99.90
26408;DHT22;14583;43.604;1.364;2022-11-15T17:38:32;16.20;99.90
26408;DHT22;14583;43.604;1.364;2022-11-15T17:41:06;16.10;99.90
26408;DHT22;14583;43.604;1.364;2022-11-15T17:43:33;16.10;99.90
26408;DHT22;14583;43.604;1.364;2022-11-15T17:46:03;16.10;99.90